sensor_id;sensor_type;location;lat;lon;timestamp;pressure;altitude;pressure_sealevel;temperature;humidity
22872;BME280;11603;44.910;8.630;2023-05-18T00:02:03;100648.59;;;14.89;100.00
22872;BME280;11603;44.910;8.630;2023-05-18T00:04:30;100644.78;;;14.92;100.00
22872;BME280;11603;44.910;8.630;2023-05-18T00:06:57;100647.75;;;14.89;100.00
22872;BME280;11603;44.910;8.630;2023-05-18T00:09:32;100647.25;;;14.95;100.00
22872;BME280;11603;44.910;8.630;2023-05-18T00:11:59;100644.19;;;14.99;100.00
22872;BME280;11603;44.910;8.630;2023-05-18T00:14:25;100637.97;;;14.99;100.00
22872;BME280;11603;44.910;8.630;2023-05-18T00:16:51;100637.09;;;14.98;100.00
22872;BME280;11603;44.910;8.630;2023-05-18T00:19:21;100641.75;;;14.96;100.00
22872;BME280;11603;44.910;8.630;2023-05-18T00:21:47;100641.25;;;15.02;100.00
22872;BME280;11603;44.910;8.630;2023-05-18T00:24:13;100643.94;;;15.02;100.00
22872;BME280;11603;44.910;8.630;2023-05-18T00:26:42;100656.31;;;15.05;100.00
22872;BME280;11603;44.910;8.630;2023-05-18T00:29:08;100647.88;;;15.09;100.00
22872;BME280;11603;44.910;8.630;2023-05-18T00:31:34;100648.84;;;15.08;100.00
22872;BME280;11603;44.910;8.630;2023-05-18T00:34:04;100653.41;;;14.97;100.00
22872;BME280;11603;44.910;8.630;2023-05-18T00:36:30;100657.41;;;15.02;100.00
22872;BME280;11603;44.910;8.630;2023-05-18T00:38:59;100662.31;;;14.97;100.00
22872;BME280;11603;44.910;8.630;2023-05-18T00:41:26;100653.03;;;15.01;100.00
22872;BME280;11603;44.910;8.630;2023-05-18T00:43:53;100656.22;;;15.06;100.00
22872;BME280;11603;44.910;8.630;2023-05-18T00:46:19;100644.94;;;15.01;100.00
22872;BME280;11603;44.910;8.630;2023-05-18T00:48:45;100649.00;;;14.96;100.00
22872;BME280;11603;44.910;8.630;2023-05-18T00:51:11;100644.69;;;14.93;100.00
22872;BME280;11603;44.910;8.630;2023-05-18T00:53:37;100649.69;;;14.98;100.00
22872;BME280;11603;44.910;8.630;2023-05-18T00:56:03;100647.25;;;14.95;100.00
22872;BME280;11603;44.910;8.630;2023-05-18T00:58:28;100642.84;;;14.94;100.00
22872;BME280;11603;44.910;8.630;2023-05-18T01:00:56;100647.25;;;14.95;100.00
22872;BME280;11603;44.910;8.630;2023-05-18T01:03:22;100653.63;;;14.94;100.00
22872;BME280;11603;44.910;8.630;2023-05-18T01:05:48;100642.84;;;14.94;100.00
22872;BME280;11603;44.910;8.630;2023-05-18T01:08:25;100654.09;;;14.88;100.00
22872;BME280;11603;44.910;8.630;2023-05-18T01:10:55;100650.94;;;14.94;100.00
22872;BME280;11603;44.910;8.630;2023-05-18T01:14:01;100657.06;;;14.96;100.00
22872;BME280;11603;44.910;8.630;2023-05-18T01:16:22;100655.44;;;14.82;100.00
22872;BME280;11603;44.910;8.630;2023-05-18T01:19:02;100653.13;;;14.77;100.00
22872;BME280;11603;44.910;8.630;2023-05-18T01:24:51;100649.44;;;14.78;100.00
22872;BME280;11603;44.910;8.630;2023-05-18T01:27:23;100640.28;;;14.81;100.00
22872;BME280;11603;44.910;8.630;2023-05-18T01:29:50;100638.69;;;14.78;100.00
22872;BME280;11603;44.910;8.630;2023-05-18T01:32:19;100641.97;;;14.71;100.00
22872;BME280;11603;44.910;8.630;2023-05-18T01:34:46;100639.53;;;14.68;100.00
22872;BME280;11603;44.910;8.630;2023-05-18T01:37:12;100638.56;;;14.69;100.00
22872;BME280;11603;44.910;8.630;2023-05-18T01:39:38;100639.78;;;14.65;100.00
22872;BME280;11603;44.910;8.630;2023-05-18T01:42:12;100633.66;;;14.63;100.00
22872;BME280;11603;44.910;8.630;2023-05-18T01:44:44;100639.38;;;14.58;100.00
22872;BME280;11603;44.910;8.630;2023-05-18T01:47:14;100635.34;;;14.53;100.00
22872;BME280;11603;44.910;8.630;2023-05-18T01:52:59;100639.13;;;14.50;100.00
22872;BME280;11603;44.910;8.630;2023-05-18T01:55:30;100637.44;;;14.49;100.00
22872;BME280;11603;44.910;8.630;2023-05-18T01:57:57;100642.66;;;14.51;100.00
22872;BME280;11603;44.910;8.630;2023-05-18T02:00:24;100647.09;;;14.52;100.00
22872;BME280;11603;44.910;8.630;2023-05-18T02:02:50;100646.97;;;14.53;100.00
22872;BME280;11603;44.910;8.630;2023-05-18T02:05:17;100632.03;;;14.49;100.00
22872;BME280;11603;44.910;8.630;2023-05-18T02:07:42;100640.97;;;14.50;100.00
22872;BME280;11603;44.910;8.630;2023-05-18T02:10:08;100640.97;;;14.50;100.00
22872;BME280;11603;44.910;8.630;2023-05-18T02:12:34;100640.22;;;14.48;100.00
22872;BME280;11603;44.910;8.630;2023-05-18T02:15:00;100640.69;;;14.41;100.00
22872;BME280;11603;44.910;8.630;2023-05-18T02:17:34;100642.53;;;14.41;100.00
22872;BME280;11603;44.910;8.630;2023-05-18T02:20:04;100646.19;;;14.40;100.00
22872;BME280;11603;44.910;8.630;2023-05-18T02:22:35;100649.63;;;14.42;100.00
22872;BME280;11603;44.910;8.630;2023-05-18T02:25:01;100650.25;;;14.46;100.00
22872;BME280;11603;44.910;8.630;2023-05-18T02:27:26;100659.81;;;14.50;100.00
22872;BME280;11603;44.910;8.630;2023-05-18T02:29:52;100659.22;;;14.57;100.00
22872;BME280;11603;44.910;8.630;2023-05-18T02:32:19;100662.75;;;14.58;100.00
22872;BME280;11603;44.910;8.630;2023-05-18T02:34:45;100664.19;;;14.51;100.00
22872;BME280;11603;44.910;8.630;2023-05-18T02:37:10;100647.94;;;14.52;100.00
22872;BME280;11603;44.910;8.630;2023-05-18T02:39:38;100650.38;;;14.55;100.00
22872;BME280;11603;44.910;8.630;2023-05-18T02:42:03;100650.50;;;14.43;100.00
22872;BME280;11603;44.910;8.630;2023-05-18T02:44:29;100650.84;;;14.38;100.00
22872;BME280;11603;44.910;8.630;2023-05-18T02:46:55;100653.97;;;14.32;100.00
22872;BME280;11603;44.910;8.630;2023-05-18T02:49:21;100650.00;;;14.37;100.00
22872;BME280;11603;44.910;8.630;2023-05-18T02:51:46;100647.38;;;14.36;100.00
22872;BME280;11603;44.910;8.630;2023-05-18T02:54:12;100644.34;;;14.40;100.00
22872;BME280;11603;44.910;8.630;2023-05-18T02:56:40;100644.00;;;14.45;100.00
22872;BME280;11603;44.910;8.630;2023-05-18T02:59:23;100639.13;;;14.50;100.00
22872;BME280;11603;44.910;8.630;2023-05-18T03:01:49;100632.03;;;14.49;100.00
22872;BME280;11603;44.910;8.630;2023-05-18T03:04:14;100638.50;;;14.47;100.00
22872;BME280;11603;44.910;8.630;2023-05-18T03:06:46;100641.09;;;14.48;100.00
22872;BME280;11603;44.910;8.630;2023-05-18T03:09:12;100640.47;;;14.56;100.00
22872;BME280;11603;44.910;8.630;2023-05-18T03:11:41;100636.34;;;14.63;100.00
22872;BME280;11603;44.910;8.630;2023-05-18T03:14:08;100639.63;;;14.66;100.00
22872;BME280;11603;44.910;8.630;2023-05-18T03:16:33;100644.03;;;14.67;100.00
22872;BME280;11603;44.910;8.630;2023-05-18T03:19:03;100643.34;;;14.65;100.00
22872;BME280;11603;44.910;8.630;2023-05-18T03:21:33;100638.13;;;14.51;100.00
22872;BME280;11603;44.910;8.630;2023-05-18T03:24:02;100648.31;;;14.48;100.00
22872;BME280;11603;44.910;8.630;2023-05-18T03:26:28;100651.22;;;14.45;100.00
22872;BME280;11603;44.910;8.630;2023-05-18T03:28:57;100639.63;;;14.44;100.00
22872;BME280;11603;44.910;8.630;2023-05-18T03:31:24;100637.41;;;14.38;100.00
22872;BME280;11603;44.910;8.630;2023-05-18T03:33:51;100629.44;;;14.36;100.00
22872;BME280;11603;44.910;8.630;2023-05-18T03:36:17;100623.94;;;14.38;100.00
22872;BME280;11603;44.910;8.630;2023-05-18T03:38:43;100629.94;;;14.41;100.00
22872;BME280;11603;44.910;8.630;2023-05-18T03:41:11;100635.34;;;14.53;100.00
22872;BME280;11603;44.910;8.630;2023-05-18T03:43:36;100634.97;;;14.57;100.00
22872;BME280;11603;44.910;8.630;2023-05-18T03:46:02;100640.75;;;14.64;100.00
22872;BME280;11603;44.910;8.630;2023-05-18T03:48:28;100645.66;;;14.70;100.00
22872;BME280;11603;44.910;8.630;2023-05-18T03:50:53;100648.09;;;14.73;100.00
22872;BME280;11603;44.910;8.630;2023-05-18T03:53:19;100651.28;;;14.78;100.00
22872;BME280;11603;44.910;8.630;2023-05-18T03:55:46;100648.47;;;14.79;100.00
22872;BME280;11603;44.910;8.630;2023-05-18T03:58:14;100653.75;;;14.81;100.00
22872;BME280;11603;44.910;8.630;2023-05-18T04:00:40;100652.53;;;14.85;100.00
22872;BME280;11603;44.910;8.630;2023-05-18T04:03:07;100653.13;;;14.89;100.00
22872;BME280;11603;44.910;8.630;2023-05-18T04:05:40;100648.97;;;14.73;100.00
22872;BME280;11603;44.910;8.630;2023-05-18T04:08:10;100649.81;;;14.74;100.00
22872;BME280;11603;44.910;8.630;2023-05-18T04:10:42;100657.16;;;14.72;100.00
22872;BME280;11603;44.910;8.630;2023-05-18T04:13:08;100654.44;;;14.72;100.00
22872;BME280;11603;44.910;8.630;2023-05-18T04:15:35;100658.38;;;14.68;100.00
22872;BME280;11603;44.910;8.630;2023-05-18T04:18:01;100658.00;;;14.72;100.00
22872;BME280;11603;44.910;8.630;2023-05-18T04:20:27;100659.22;;;14.68;100.00
22872;BME280;11603;44.910;8.630;2023-05-18T04:22:54;100661.31;;;14.65;100.00
22872;BME280;11603;44.910;8.630;2023-05-18T04:25:22;100660.69;;;14.61;100.00
22872;BME280;11603;44.910;8.630;2023-05-18T04:27:52;100653.47;;;14.62;100.00
22872;BME280;11603;44.910;8.630;2023-05-18T04:30:20;100663.38;;;14.61;100.00
22872;BME280;11603;44.910;8.630;2023-05-18T04:32:48;100673.19;;;14.73;100.00
22872;BME280;11603;44.910;8.630;2023-05-18T04:35:14;100665.34;;;14.81;100.00
22872;BME280;11603;44.910;8.630;2023-05-18T04:37:40;100667.34;;;14.91;100.00
22872;BME280;11603;44.910;8.630;2023-05-18T04:40:10;100669.56;;;14.97;100.00
22872;BME280;11603;44.910;8.630;2023-05-18T04:42:42;100667.22;;;15.03;100.00
22872;BME280;11603;44.910;8.630;2023-05-18T04:45:16;100673.84;;;15.10;100.00
22872;BME280;11603;44.910;8.630;2023-05-18T04:47:45;100683.38;;;15.14;100.00
22872;BME280;11603;44.910;8.630;2023-05-18T04:50:16;100686.56;;;15.19;100.00
22872;BME280;11603;44.910;8.630;2023-05-18T04:52:43;100696.00;;;15.25;100.00
22872;BME280;11603;44.910;8.630;2023-05-18T04:55:17;100691.38;;;15.27;100.00
22872;BME280;11603;44.910;8.630;2023-05-18T04:57:50;100697.47;;;15.29;100.00
22872;BME280;11603;44.910;8.630;2023-05-18T05:00:19;100694.78;;;15.29;100.00
22872;BME280;11603;44.910;8.630;2023-05-18T05:02:44;100690.50;;;15.26;100.00
22872;BME280;11603;44.910;8.630;2023-05-18T05:05:10;100684.84;;;15.18;100.00
22872;BME280;11603;44.910;8.630;2023-05-18T05:07:36;100694.78;;;15.18;100.00
22872;BME280;11603;44.910;8.630;2023-05-18T05:10:02;100698.22;;;15.20;100.00
22872;BME280;11603;44.910;8.630;2023-05-18T05:12:28;100700.66;;;15.23;100.00
22872;BME280;11603;44.910;8.630;2023-05-18T05:14:53;100696.88;;;15.25;100.00
22872;BME280;11603;44.910;8.630;2023-05-18T05:17:19;100700.31;;;15.27;100.00
22872;BME280;11603;44.910;8.630;2023-05-18T05:19:44;100694.66;;;15.31;100.00
22872;BME280;11603;44.910;8.630;2023-05-18T05:22:10;100700.66;;;15.34;100.00
22872;BME280;11603;44.910;8.630;2023-05-18T05:24:36;100694.41;;;15.34;100.00
22872;BME280;11603;44.910;8.630;2023-05-18T05:27:02;100704.22;;;15.35;100.00
22872;BME280;11603;44.910;8.630;2023-05-18T05:29:27;100698.44;;;15.39;100.00
22872;BME280;11603;44.910;8.630;2023-05-18T05:31:53;100701.78;;;15.43;100.00
22872;BME280;11603;44.910;8.630;2023-05-18T05:34:21;100705.19;;;15.45;100.00
22872;BME280;11603;44.910;8.630;2023-05-18T05:36:47;100704.22;;;15.46;100.00
22872;BME280;11603;44.910;8.630;2023-05-18T05:39:13;100709.72;;;15.44;100.00
22872;BME280;11603;44.910;8.630;2023-05-18T05:41:39;100713.41;;;15.43;100.00
22872;BME280;11603;44.910;8.630;2023-05-18T05:44:04;100713.16;;;15.46;100.00
22872;BME280;11603;44.910;8.630;2023-05-18T05:46:30;100717.97;;;15.54;100.00
22872;BME280;11603;44.910;8.630;2023-05-18T05:48:57;100711.47;;;15.56;100.00
22872;BME280;11603;44.910;8.630;2023-05-18T05:51:22;100710.97;;;15.62;100.00
22872;BME280;11603;44.910;8.630;2023-05-18T05:53:48;100713.66;;;15.62;100.00
22872;BME280;11603;44.910;8.630;2023-05-18T05:56:15;100723.47;;;15.75;100.00
22872;BME280;11603;44.910;8.630;2023-05-18T05:58:40;100715.34;;;15.86;100.00
22872;BME280;11603;44.910;8.630;2023-05-18T06:01:07;100717.03;;;15.98;100.00
22872;BME280;11603;44.910;8.630;2023-05-18T06:03:33;100708.50;;;16.14;100.00
22872;BME280;11603;44.910;8.630;2023-05-18T06:06:00;100718.88;;;16.29;100.00
22872;BME280;11603;44.910;8.630;2023-05-18T06:08:27;100711.41;;;16.33;100.00
22872;BME280;11603;44.910;8.630;2023-05-18T06:10:54;100720.09;;;16.36;100.00
22872;BME280;11603;44.910;8.630;2023-05-18T06:13:20;100716.22;;;16.50;100.00
22872;BME280;11603;44.910;8.630;2023-05-18T06:15:48;100714.09;;;16.65;100.00
22872;BME280;11603;44.910;8.630;2023-05-18T06:18:14;100705.91;;;16.76;100.00
22872;BME280;11603;44.910;8.630;2023-05-18T06:20:39;100706.13;;;16.84;100.00
22872;BME280;11603;44.910;8.630;2023-05-18T06:23:05;100712.53;;;16.83;100.00
22872;BME280;11603;44.910;8.630;2023-05-18T06:25:51;100707.16;;;16.92;100.00
22872;BME280;11603;44.910;8.630;2023-05-18T06:28:28;100715.28;;;16.92;100.00
22872;BME280;11603;44.910;8.630;2023-05-18T06:31:01;100712.66;;;16.81;100.00
22872;BME280;11603;44.910;8.630;2023-05-18T06:33:31;100721.09;;;16.88;100.00
22872;BME280;11603;44.910;8.630;2023-05-18T06:35:56;100714.41;;;16.92;100.00
22872;BME280;11603;44.910;8.630;2023-05-18T06:38:22;100722.16;;;17.06;100.00
22872;BME280;11603;44.910;8.630;2023-05-18T06:40:47;100724.63;;;17.09;100.00
22872;BME280;11603;44.910;8.630;2023-05-18T06:43:14;100715.38;;;17.12;100.00
22872;BME280;11603;44.910;8.630;2023-05-18T06:45:50;100717.56;;;17.18;100.00
22872;BME280;11603;44.910;8.630;2023-05-18T06:48:48;100718.53;;;17.17;100.00
22872;BME280;11603;44.910;8.630;2023-05-18T06:51:14;100719.47;;;17.06;100.00
22872;BME280;11603;44.910;8.630;2023-05-18T06:53:41;100715.66;;;17.09;100.00
22872;BME280;11603;44.910;8.630;2023-05-18T06:56:07;100727.22;;;17.11;100.00
22872;BME280;11603;44.910;8.630;2023-05-18T06:58:34;100719.22;;;17.09;100.00
22872;BME280;11603;44.910;8.630;2023-05-18T07:01:03;100720.34;;;17.07;100.00
22872;BME280;11603;44.910;8.630;2023-05-18T07:03:28;100729.97;;;17.00;100.00
22872;BME280;11603;44.910;8.630;2023-05-18T07:05:54;100734.97;;;17.04;100.00
22872;BME280;11603;44.910;8.630;2023-05-18T07:08:19;100730.22;;;17.17;100.00
22872;BME280;11603;44.910;8.630;2023-05-18T07:10:45;100731.72;;;17.31;100.00
22872;BME280;11603;44.910;8.630;2023-05-18T07:13:11;100736.03;;;17.43;100.00
22872;BME280;11603;44.910;8.630;2023-05-18T07:15:37;100738.06;;;17.51;100.00
22872;BME280;11603;44.910;8.630;2023-05-18T07:18:03;100739.69;;;17.32;100.00
22872;BME280;11603;44.910;8.630;2023-05-18T07:20:28;100742.53;;;17.31;100.00
22872;BME280;11603;44.910;8.630;2023-05-18T07:22:54;100750.97;;;17.17;100.00
22872;BME280;11603;44.910;8.630;2023-05-18T07:25:20;100739.25;;;17.07;100.00
22872;BME280;11603;44.910;8.630;2023-05-18T07:27:46;100737.69;;;17.04;100.00
22872;BME280;11603;44.910;8.630;2023-05-18T07:30:11;100752.84;;;17.16;100.00
22872;BME280;11603;44.910;8.630;2023-05-18T07:32:37;100750.78;;;17.29;100.00
22872;BME280;11603;44.910;8.630;2023-05-18T07:35:03;100749.34;;;17.25;100.00
22872;BME280;11603;44.910;8.630;2023-05-18T07:37:29;100751.50;;;17.31;100.00
22872;BME280;11603;44.910;8.630;2023-05-18T07:39:55;100759.09;;;17.38;100.00
22872;BME280;11603;44.910;8.630;2023-05-18T07:42:21;100750.28;;;17.45;100.00
22872;BME280;11603;44.910;8.630;2023-05-18T07:44:46;100759.22;;;17.66;100.00
22872;BME280;11603;44.910;8.630;2023-05-18T07:47:12;100752.56;;;17.80;100.00
22872;BME280;11603;44.910;8.630;2023-05-18T07:49:37;100760.94;;;17.67;100.00
22872;BME280;11603;44.910;8.630;2023-05-18T07:52:07;100758.66;;;17.63;100.00
22872;BME280;11603;44.910;8.630;2023-05-18T07:54:33;100762.94;;;17.65;100.00
22872;BME280;11603;44.910;8.630;2023-05-18T07:56:58;100758.59;;;17.53;100.00
22872;BME280;11603;44.910;8.630;2023-05-18T07:59:24;100756.41;;;17.68;100.00
22872;BME280;11603;44.910;8.630;2023-05-18T08:01:49;100759.13;;;17.77;100.00
22872;BME280;11603;44.910;8.630;2023-05-18T08:04:15;100755.88;;;17.84;100.00
22872;BME280;11603;44.910;8.630;2023-05-18T08:06:40;100750.31;;;17.85;100.00
22872;BME280;11603;44.910;8.630;2023-05-18T08:09:06;100762.72;;;17.88;100.00
22872;BME280;11603;44.910;8.630;2023-05-18T08:11:31;100763.28;;;17.91;100.00
22872;BME280;11603;44.910;8.630;2023-05-18T08:13:57;100759.28;;;17.86;100.00
22872;BME280;11603;44.910;8.630;2023-05-18T08:16:22;100767.56;;;17.84;100.00
22872;BME280;11603;44.910;8.630;2023-05-18T08:18:48;100766.00;;;17.91;100.00
22872;BME280;11603;44.910;8.630;2023-05-18T08:21:13;100759.28;;;17.86;100.00
22872;BME280;11603;44.910;8.630;2023-05-18T08:23:39;100757.88;;;17.91;100.00
22872;BME280;11603;44.910;8.630;2023-05-18T08:26:05;100760.91;;;18.07;100.00
22872;BME280;11603;44.910;8.630;2023-05-18T08:28:33;100760.94;;;18.27;100.00
22872;BME280;11603;44.910;8.630;2023-05-18T08:30:59;100757.13;;;18.39;100.00
22872;BME280;11603;44.910;8.630;2023-05-18T08:33:24;100752.03;;;18.55;100.00
22872;BME280;11603;44.910;8.630;2023-05-18T08:35:50;100757.59;;;18.73;100.00
22872;BME280;11603;44.910;8.630;2023-05-18T08:38:16;100754.16;;;18.71;100.00
22872;BME280;11603;44.910;8.630;2023-05-18T08:40:49;100753.47;;;18.78;100.00
22872;BME280;11603;44.910;8.630;2023-05-18T08:43:21;100748.84;;;19.08;100.00
22872;BME280;11603;44.910;8.630;2023-05-18T08:45:56;100754.81;;;19.21;100.00
22872;BME280;11603;44.910;8.630;2023-05-18T08:48:23;100739.19;;;19.32;100.00
22872;BME280;11603;44.910;8.630;2023-05-18T08:50:52;100752.72;;;19.42;100.00
22872;BME280;11603;44.910;8.630;2023-05-18T08:53:23;100755.03;;;19.56;100.00
22872;BME280;11603;44.910;8.630;2023-05-18T08:55:52;100755.25;;;19.63;100.00
22872;BME280;11603;44.910;8.630;2023-05-18T08:58:21;100758.81;;;19.73;100.00
22872;BME280;11603;44.910;8.630;2023-05-18T09:00:51;100750.63;;;20.00;100.00
22872;BME280;11603;44.910;8.630;2023-05-18T09:03:19;100752.81;;;19.69;100.00
22872;BME280;11603;44.910;8.630;2023-05-18T09:05:46;100759.22;;;19.68;100.00
22872;BME280;11603;44.910;8.630;2023-05-18T09:08:13;100750.88;;;19.42;100.00
22872;BME280;11603;44.910;8.630;2023-05-18T09:10:39;100751.50;;;19.36;100.00
22872;BME280;11603;44.910;8.630;2023-05-18T09:13:04;100764.75;;;19.49;100.00
22872;BME280;11603;44.910;8.630;2023-05-18T09:15:32;100761.22;;;19.29;100.00
22872;BME280;11603;44.910;8.630;2023-05-18T09:17:59;100772.63;;;19.33;100.00
22872;BME280;11603;44.910;8.630;2023-05-18T09:20:25;100771.16;;;19.48;100.00
22872;BME280;11603;44.910;8.630;2023-05-18T09:22:51;100783.03;;;19.47;100.00
22872;BME280;11603;44.910;8.630;2023-05-18T09:25:17;100787.50;;;19.00;100.00
22872;BME280;11603;44.910;8.630;2023-05-18T09:27:42;100789.69;;;18.87;100.00
22872;BME280;11603;44.910;8.630;2023-05-18T09:30:09;100797.78;;;19.06;100.00
22872;BME280;11603;44.910;8.630;2023-05-18T09:32:35;100793.06;;;19.18;100.00
22872;BME280;11603;44.910;8.630;2023-05-18T09:35:04;100786.63;;;19.28;100.00
22872;BME280;11603;44.910;8.630;2023-05-18T09:37:31;100780.06;;;19.31;100.00
22872;BME280;11603;44.910;8.630;2023-05-18T09:40:04;100783.69;;;19.59;100.00
22872;BME280;11603;44.910;8.630;2023-05-18T09:42:42;100786.28;;;19.60;100.00
22872;BME280;11603;44.910;8.630;2023-05-18T09:45:21;100779.28;;;19.58;100.00
22872;BME280;11603;44.910;8.630;2023-05-18T09:47:52;100780.31;;;19.47;100.00
22872;BME280;11603;44.910;8.630;2023-05-18T09:50:19;100783.66;;;19.68;100.00
22872;BME280;11603;44.910;8.630;2023-05-18T09:52:45;100784.03;;;19.83;100.00
22872;BME280;11603;44.910;8.630;2023-05-18T09:55:13;100789.94;;;19.69;100.00
22872;BME280;11603;44.910;8.630;2023-05-18T09:57:44;100781.88;;;19.40;100.00
22872;BME280;11603;44.910;8.630;2023-05-18T10:00:11;100787.28;;;19.59;100.00
22872;BME280;11603;44.910;8.630;2023-05-18T10:02:41;100773.59;;;19.88;100.00
22872;BME280;11603;44.910;8.630;2023-05-18T10:05:25;100783.09;;;20.02;100.00
22872;BME280;11603;44.910;8.630;2023-05-18T10:07:59;100773.78;;;20.04;100.00
22872;BME280;11603;44.910;8.630;2023-05-18T10:10:26;100781.88;;;19.86;100.00
22872;BME280;11603;44.910;8.630;2023-05-18T10:12:54;100781.81;;;19.69;100.00
22872;BME280;11603;44.910;8.630;2023-05-18T10:15:21;100780.41;;;19.65;100.00
22872;BME280;11603;44.910;8.630;2023-05-18T10:17:48;100784.28;;;19.53;100.00
22872;BME280;11603;44.910;8.630;2023-05-18T10:20:18;100786.13;;;19.89;100.00
22872;BME280;11603;44.910;8.630;2023-05-18T10:22:45;100783.34;;;20.08;100.00
22872;BME280;11603;44.910;8.630;2023-05-18T10:25:17;100783.88;;;20.12;100.00
22872;BME280;11603;44.910;8.630;2023-05-18T10:27:43;100786.84;;;20.46;100.00
22872;BME280;11603;44.910;8.630;2023-05-18T10:30:10;100789.94;;;20.33;100.00
22872;BME280;11603;44.910;8.630;2023-05-18T10:32:37;100789.72;;;20.44;100.00
22872;BME280;11603;44.910;8.630;2023-05-18T10:35:04;100783.59;;;20.15;100.00
22872;BME280;11603;44.910;8.630;2023-05-18T10:37:32;100780.75;;;20.07;100.00
22872;BME280;11603;44.910;8.630;2023-05-18T10:40:00;100776.34;;;20.06;100.00
22872;BME280;11603;44.910;8.630;2023-05-18T10:42:29;100771.22;;;20.03;100.00
22872;BME280;11603;44.910;8.630;2023-05-18T10:44:55;100775.78;;;20.02;100.00
22872;BME280;11603;44.910;8.630;2023-05-18T10:47:23;100765.78;;;20.03;100.00
22872;BME280;11603;44.910;8.630;2023-05-18T10:49:50;100773.25;;;20.46;100.00
22872;BME280;11603;44.910;8.630;2023-05-18T10:52:17;100771.69;;;20.79;100.00
22872;BME280;11603;44.910;8.630;2023-05-18T10:54:43;100761.19;;;21.01;100.00
22872;BME280;11603;44.910;8.630;2023-05-18T10:57:14;100762.66;;;20.96;100.00
22872;BME280;11603;44.910;8.630;2023-05-18T10:59:42;100765.50;;;21.12;100.00
22872;BME280;11603;44.910;8.630;2023-05-18T11:02:09;100756.56;;;21.71;100.00
22872;BME280;11603;44.910;8.630;2023-05-18T11:04:38;100760.91;;;21.56;100.00
22872;BME280;11603;44.910;8.630;2023-05-18T11:07:09;100753.09;;;21.61;100.00
22872;BME280;11603;44.910;8.630;2023-05-18T11:09:35;100757.94;;;21.75;100.00
22872;BME280;11603;44.910;8.630;2023-05-18T11:12:01;100754.66;;;21.38;100.00
22872;BME280;11603;44.910;8.630;2023-05-18T11:14:30;100752.94;;;21.37;100.00
22872;BME280;11603;44.910;8.630;2023-05-18T11:22:50;100734.84;;;21.20;100.00
22872;BME280;11603;44.910;8.630;2023-05-18T11:28:01;100728.91;;;21.06;100.00
22872;BME280;11603;44.910;8.630;2023-05-18T11:30:43;100730.59;;;20.82;100.00
22872;BME280;11603;44.910;8.630;2023-05-18T11:33:10;100737.09;;;20.89;100.00
22872;BME280;11603;44.910;8.630;2023-05-18T11:38:54;100728.66;;;20.92;100.00
22872;BME280;11603;44.910;8.630;2023-05-18T11:41:33;100727.28;;;20.70;100.00
22872;BME280;11603;44.910;8.630;2023-05-18T11:46:49;100726.47;;;21.47;100.00
22872;BME280;11603;44.910;8.630;2023-05-18T11:49:16;100721.00;;;21.39;100.00
22872;BME280;11603;44.910;8.630;2023-05-18T11:54:33;100715.03;;;21.35;100.00
22872;BME280;11603;44.910;8.630;2023-05-18T11:56:59;100722.94;;;21.54;100.00
22872;BME280;11603;44.910;8.630;2023-05-18T11:59:37;100717.53;;;21.63;100.00
22872;BME280;11603;44.910;8.630;2023-05-18T12:02:04;100722.94;;;21.54;100.00
22872;BME280;11603;44.910;8.630;2023-05-18T12:04:30;100714.81;;;21.96;100.00
22872;BME280;11603;44.910;8.630;2023-05-18T12:06:58;100710.28;;;22.29;100.00
22872;BME280;11603;44.910;8.630;2023-05-18T12:09:24;100699.13;;;21.98;100.00
22872;BME280;11603;44.910;8.630;2023-05-18T12:11:50;100691.16;;;22.05;100.00
22872;BME280;11603;44.910;8.630;2023-05-18T12:14:18;100691.22;;;22.29;98.36
22872;BME280;11603;44.910;8.630;2023-05-18T12:16:46;100679.47;;;22.45;98.21
22872;BME280;11603;44.910;8.630;2023-05-18T12:19:11;100689.19;;;22.39;99.72
22872;BME280;11603;44.910;8.630;2023-05-18T12:21:37;100686.44;;;22.31;100.00
22872;BME280;11603;44.910;8.630;2023-05-18T12:24:02;100681.28;;;22.04;98.28
22872;BME280;11603;44.910;8.630;2023-05-18T12:26:29;100685.06;;;21.77;100.00
22872;BME280;11603;44.910;8.630;2023-05-18T12:28:54;100682.34;;;21.69;100.00
22872;BME280;11603;44.910;8.630;2023-05-18T12:31:21;100683.41;;;21.84;100.00
22872;BME280;11603;44.910;8.630;2023-05-18T12:33:47;100674.97;;;22.04;96.44
22872;BME280;11603;44.910;8.630;2023-05-18T12:36:13;100671.13;;;22.55;91.77
22872;BME280;11603;44.910;8.630;2023-05-18T12:38:39;100672.69;;;22.82;91.38
22872;BME280;11603;44.910;8.630;2023-05-18T12:41:05;100669.03;;;23.05;92.44
22872;BME280;11603;44.910;8.630;2023-05-18T12:43:34;100670.94;;;22.97;89.44
22872;BME280;11603;44.910;8.630;2023-05-18T12:46:04;100674.03;;;22.86;89.41
22872;BME280;11603;44.910;8.630;2023-05-18T12:48:37;100677.56;;;22.62;88.67
22872;BME280;11603;44.910;8.630;2023-05-18T12:51:17;100677.59;;;22.78;85.63
22872;BME280;11603;44.910;8.630;2023-05-18T12:53:43;100680.31;;;22.62;87.01
22872;BME280;11603;44.910;8.630;2023-05-18T12:56:09;100681.84;;;22.56;87.20
22872;BME280;11603;44.910;8.630;2023-05-18T12:58:36;100685.06;;;22.35;88.00
22872;BME280;11603;44.910;8.630;2023-05-18T13:01:09;100685.59;;;22.63;88.75
22872;BME280;11603;44.910;8.630;2023-05-18T13:03:38;100670.75;;;23.06;86.08
22872;BME280;11603;44.910;8.630;2023-05-18T13:06:08;100674.66;;;23.12;84.39
22872;BME280;11603;44.910;8.630;2023-05-18T13:08:36;100669.88;;;23.14;86.33